Hovedside
METAR-TAF:

METAR-TAF

Lufthavner :

Malakka internasjonale lufthavn

Malakka, Malaysia

breddegrad: 02-16N, lengdegrad: 102-15E, høyde over havet: 11 m

Gjeldene værobservasjon

Denne rapporten ble laget for 47 minutter siden, klokken 20:00 UTC
Flau vind
Temperatur 27°C
Luftfuktighet 89%
Trykk 1008 hPa
Sikt 10 km eller mer
Få skyer i en høyde av 1700 ft, Bygeskyer.
Spredte skyer i en høyde av 2700 ft

METAR: WMKM 242000Z 00000KT 9999 FEW017CB SCT027 27/25 Q1008

Tid: 04:47 (20:47 UTC)

Varsel

Denne rapporten ble laget for 3 timer og 47 minutter siden, klokken 17:00 UTC
Varsel gyldig fra 24. klokken 18 UTC til 25. klokken 18 UTC
Vind 3 kt fra skiftende retning
Sikt 10 km eller mer
Få skyer i en høyde av 2500 ft

TAF: WMKM 241700Z 2418/2518 VRB03KT 9999 FEW025

Værobservasjoner og værvarsel for over 4000 flyplasser (METAR- og TAF-rapporter).

Tilgjengelige stasjoner er representert av de røde og gule prikkene på kartet.

Hold musepekeren over prikken for å se navnet på stasjonen.

Klikk så for å se værobservasjoner og -varsler.

For å forandre kartet kan du klikke på den grønne knappen med svart kryss for å zoome inn, på den grønne knappen med strek for å zoome ut, eller på de grønne pilene for å se tilstøtende kart.


METAR-TAF: